sensor_id;sensor_type;location;lat;lon;timestamp;P1;durP1;ratioP1;P2;durP2;ratioP2
7883;SDS011;3987;51.458;7.238;2024-01-11T00:09:44;66.45;;;44.13;;
7883;SDS011;3987;51.458;7.238;2024-01-11T00:24:44;67.73;;;45.37;;
7883;SDS011;3987;51.458;7.238;2024-01-11T00:39:45;71.30;;;45.60;;
7883;SDS011;3987;51.458;7.238;2024-01-11T00:54:45;69.47;;;46.17;;
7883;SDS011;3987;51.458;7.238;2024-01-11T01:09:46;72.67;;;47.53;;
7883;SDS011;3987;51.458;7.238;2024-01-11T01:24:46;75.63;;;46.65;;
7883;SDS011;3987;51.458;7.238;2024-01-11T01:39:46;77.82;;;47.75;;
7883;SDS011;3987;51.458;7.238;2024-01-11T01:54:47;82.93;;;50.73;;
7883;SDS011;3987;51.458;7.238;2024-01-11T02:09:49;78.33;;;48.47;;
7883;SDS011;3987;51.458;7.238;2024-01-11T02:24:49;80.55;;;50.63;;
7883;SDS011;3987;51.458;7.238;2024-01-11T02:39:50;79.40;;;50.00;;
7883;SDS011;3987;51.458;7.238;2024-01-11T02:54:50;83.85;;;52.08;;
7883;SDS011;3987;51.458;7.238;2024-01-11T03:09:51;86.83;;;53.33;;
7883;SDS011;3987;51.458;7.238;2024-01-11T03:24:51;81.60;;;50.58;;
7883;SDS011;3987;51.458;7.238;2024-01-11T03:39:52;77.97;;;50.20;;
7883;SDS011;3987;51.458;7.238;2024-01-11T03:54:52;85.82;;;51.63;;
7883;SDS011;3987;51.458;7.238;2024-01-11T04:09:52;87.00;;;53.47;;
7883;SDS011;3987;51.458;7.238;2024-01-11T04:24:53;95.18;;;60.17;;
7883;SDS011;3987;51.458;7.238;2024-01-11T04:39:53;93.50;;;56.20;;
7883;SDS011;3987;51.458;7.238;2024-01-11T04:54:54;93.22;;;55.40;;
7883;SDS011;3987;51.458;7.238;2024-01-11T05:09:54;95.80;;;57.97;;
7883;SDS011;3987;51.458;7.238;2024-01-11T05:24:55;92.68;;;55.33;;
7883;SDS011;3987;51.458;7.238;2024-01-11T05:39:55;92.20;;;55.10;;
7883;SDS011;3987;51.458;7.238;2024-01-11T05:54:57;90.82;;;56.22;;
7883;SDS011;3987;51.458;7.238;2024-01-11T06:09:57;95.25;;;56.20;;
7883;SDS011;3987;51.458;7.238;2024-01-11T06:24:58;84.63;;;52.20;;
7883;SDS011;3987;51.458;7.238;2024-01-11T06:39:59;92.60;;;55.60;;
7883;SDS011;3987;51.458;7.238;2024-01-11T06:55:00;95.27;;;58.80;;
7883;SDS011;3987;51.458;7.238;2024-01-11T07:10:01;88.60;;;54.72;;
7883;SDS011;3987;51.458;7.238;2024-01-11T07:25:01;99.63;;;60.47;;
7883;SDS011;3987;51.458;7.238;2024-01-11T07:40:02;99.93;;;60.17;;
7883;SDS011;3987;51.458;7.238;2024-01-11T07:55:04;97.67;;;59.23;;
7883;SDS011;3987;51.458;7.238;2024-01-11T08:10:07;93.23;;;58.27;;
7883;SDS011;3987;51.458;7.238;2024-01-11T08:25:09;96.63;;;60.53;;
7883;SDS011;3987;51.458;7.238;2024-01-11T08:40:10;86.78;;;52.28;;
7883;SDS011;3987;51.458;7.238;2024-01-11T08:55:11;86.10;;;52.83;;
7883;SDS011;3987;51.458;7.238;2024-01-11T09:10:12;88.13;;;55.13;;
7883;SDS011;3987;51.458;7.238;2024-01-11T09:25:13;83.13;;;54.20;;
7883;SDS011;3987;51.458;7.238;2024-01-11T09:40:14;86.40;;;55.90;;
7883;SDS011;3987;51.458;7.238;2024-01-11T09:55:14;88.18;;;57.53;;
7883;SDS011;3987;51.458;7.238;2024-01-11T10:10:16;78.37;;;52.77;;
7883;SDS011;3987;51.458;7.238;2024-01-11T10:25:16;75.23;;;52.27;;
7883;SDS011;3987;51.458;7.238;2024-01-11T10:40:17;66.37;;;47.90;;
7883;SDS011;3987;51.458;7.238;2024-01-11T10:55:21;62.93;;;44.50;;
7883;SDS011;3987;51.458;7.238;2024-01-11T11:10:21;65.38;;;43.60;;
7883;SDS011;3987;51.458;7.238;2024-01-11T11:25:25;61.30;;;41.97;;
7883;SDS011;3987;51.458;7.238;2024-01-11T11:40:32;61.70;;;43.23;;
7883;SDS011;3987;51.458;7.238;2024-01-11T11:55:45;55.00;;;39.17;;
7883;SDS011;3987;51.458;7.238;2024-01-11T12:10:45;49.17;;;35.92;;
7883;SDS011;3987;51.458;7.238;2024-01-11T12:25:46;49.75;;;36.13;;
7883;SDS011;3987;51.458;7.238;2024-01-11T12:40:47;50.57;;;36.40;;
7883;SDS011;3987;51.458;7.238;2024-01-11T12:55:48;50.30;;;36.77;;
7883;SDS011;3987;51.458;7.238;2024-01-11T13:11:02;41.07;;;30.60;;
7883;SDS011;3987;51.458;7.238;2024-01-11T13:26:07;40.88;;;29.23;;
7883;SDS011;3987;51.458;7.238;2024-01-11T13:41:07;32.67;;;27.33;;
7883;SDS011;3987;51.458;7.238;2024-01-11T13:56:09;31.33;;;26.23;;
7883;SDS011;3987;51.458;7.238;2024-01-11T14:11:10;35.08;;;26.85;;
7883;SDS011;3987;51.458;7.238;2024-01-11T14:26:11;33.53;;;26.73;;
7883;SDS011;3987;51.458;7.238;2024-01-11T14:41:12;36.63;;;28.80;;
7883;SDS011;3987;51.458;7.238;2024-01-11T14:56:13;38.07;;;29.40;;
7883;SDS011;3987;51.458;7.238;2024-01-11T15:11:14;35.23;;;29.33;;
7883;SDS011;3987;51.458;7.238;2024-01-11T15:26:15;34.92;;;26.67;;
7883;SDS011;3987;51.458;7.238;2024-01-11T15:41:15;34.78;;;27.90;;
7883;SDS011;3987;51.458;7.238;2024-01-11T15:56:15;31.30;;;26.00;;
7883;SDS011;3987;51.458;7.238;2024-01-11T16:11:16;24.90;;;21.50;;
7883;SDS011;3987;51.458;7.238;2024-01-11T16:26:16;13.93;;;12.80;;
7883;SDS011;3987;51.458;7.238;2024-01-11T16:41:17;15.20;;;13.90;;
7883;SDS011;3987;51.458;7.238;2024-01-11T16:56:18;18.83;;;16.98;;
7883;SDS011;3987;51.458;7.238;2024-01-11T17:11:19;20.40;;;17.35;;
7883;SDS011;3987;51.458;7.238;2024-01-11T17:26:19;42.87;;;27.30;;
7883;SDS011;3987;51.458;7.238;2024-01-11T17:41:20;62.63;;;33.90;;
7883;SDS011;3987;51.458;7.238;2024-01-11T17:56:21;60.50;;;32.87;;
7883;SDS011;3987;51.458;7.238;2024-01-11T18:11:21;61.47;;;32.67;;
7883;SDS011;3987;51.458;7.238;2024-01-11T18:26:22;42.45;;;26.08;;
7883;SDS011;3987;51.458;7.238;2024-01-11T18:41:23;41.20;;;25.77;;
7883;SDS011;3987;51.458;7.238;2024-01-11T18:56:24;45.07;;;28.90;;
7883;SDS011;3987;51.458;7.238;2024-01-11T19:11:24;47.97;;;29.67;;
7883;SDS011;3987;51.458;7.238;2024-01-11T19:26:25;44.57;;;29.20;;
7883;SDS011;3987;51.458;7.238;2024-01-11T19:41:26;49.30;;;32.05;;
7883;SDS011;3987;51.458;7.238;2024-01-11T19:56:28;51.63;;;32.40;;
7883;SDS011;3987;51.458;7.238;2024-01-11T20:11:31;52.93;;;32.47;;
7883;SDS011;3987;51.458;7.238;2024-01-11T20:26:32;75.25;;;39.40;;
7883;SDS011;3987;51.458;7.238;2024-01-11T20:41:32;88.43;;;42.27;;
7883;SDS011;3987;51.458;7.238;2024-01-11T20:56:33;109.63;;;47.75;;
7883;SDS011;3987;51.458;7.238;2024-01-11T21:11:40;124.10;;;51.27;;
7883;SDS011;3987;51.458;7.238;2024-01-11T21:26:43;150.90;;;55.70;;
7883;SDS011;3987;51.458;7.238;2024-01-11T21:41:43;151.70;;;56.53;;
7883;SDS011;3987;51.458;7.238;2024-01-11T21:56:44;168.20;;;58.28;;
7883;SDS011;3987;51.458;7.238;2024-01-11T22:11:44;155.15;;;54.80;;
7883;SDS011;3987;51.458;7.238;2024-01-11T22:26:45;164.50;;;58.97;;
7883;SDS011;3987;51.458;7.238;2024-01-11T22:41:45;142.90;;;58.10;;
7883;SDS011;3987;51.458;7.238;2024-01-11T22:56:46;155.33;;;60.70;;
7883;SDS011;3987;51.458;7.238;2024-01-11T23:11:46;148.17;;;60.43;;
7883;SDS011;3987;51.458;7.238;2024-01-11T23:26:47;150.87;;;60.23;;
7883;SDS011;3987;51.458;7.238;2024-01-11T23:41:50;150.40;;;60.27;;
7883;SDS011;3987;51.458;7.238;2024-01-11T23:56:50;142.17;;;59.93;;
